createdAt,value
2023-03-17T00:01:25.171Z,52.82
2023-03-17T00:03:51.626Z,52.81
2023-03-17T00:06:17.979Z,52.94
2023-03-17T00:08:44.233Z,52.92
2023-03-17T00:11:10.626Z,52.88
2023-03-17T00:13:36.952Z,52.64
2023-03-17T00:16:03.348Z,52.81
2023-03-17T00:18:29.709Z,52.92
2023-03-17T00:20:56.050Z,52.96
2023-03-17T00:23:22.972Z,52.80
2023-03-17T00:25:49.282Z,52.84
2023-03-17T00:28:15.695Z,52.56
2023-03-17T00:30:42.102Z,52.71
2023-03-17T00:33:08.426Z,52.85
2023-03-17T00:35:34.729Z,52.71
2023-03-17T00:38:01.300Z,52.84
2023-03-17T00:40:27.834Z,52.76
2023-03-17T00:42:54.511Z,52.86
2023-03-17T00:45:20.783Z,52.56
2023-03-17T00:47:47.150Z,52.67
2023-03-17T00:50:13.696Z,52.64
2023-03-17T00:52:40.125Z,52.38
2023-03-17T00:55:06.571Z,52.66
2023-03-17T00:57:32.959Z,52.38
2023-03-17T00:59:59.393Z,52.58
2023-03-17T01:02:25.825Z,52.45
2023-03-17T01:04:59.894Z,52.24
2023-03-17T01:07:32.079Z,52.09
2023-03-17T01:09:58.384Z,52.46
2023-03-17T01:12:24.770Z,52.37
2023-03-17T01:14:51.125Z,52.32
2023-03-17T01:17:17.859Z,52.05
2023-03-17T01:19:44.410Z,52.15
2023-03-17T01:22:10.710Z,52.33
2023-03-17T01:24:37.038Z,52.16
2023-03-17T01:27:03.318Z,52.21
2023-03-17T01:29:29.907Z,52.10
2023-03-17T01:31:56.428Z,52.17
2023-03-17T01:34:22.829Z,52.00
2023-03-17T01:36:49.242Z,52.29
2023-03-17T01:39:15.783Z,52.30
2023-03-17T01:41:42.182Z,52.24
2023-03-17T01:44:08.751Z,51.93
2023-03-17T01:46:35.150Z,52.29
2023-03-17T01:49:01.492Z,52.26
2023-03-17T01:51:27.928Z,52.08
2023-03-17T01:53:54.294Z,52.36
2023-03-17T01:56:20.831Z,52.42
2023-03-17T01:58:47.120Z,52.41
2023-03-17T02:01:13.665Z,52.45
2023-03-17T02:03:40.230Z,52.27
2023-03-17T02:06:07.000Z,52.19
2023-03-17T02:08:33.437Z,52.21
2023-03-17T02:11:00.007Z,52.43
2023-03-17T02:13:26.912Z,52.32
2023-03-17T02:15:53.309Z,52.21
2023-03-17T02:18:19.729Z,52.17
2023-03-17T02:20:46.525Z,52.41
2023-03-17T02:23:12.906Z,52.63
2023-03-17T02:25:39.272Z,52.30
2023-03-17T02:28:05.730Z,52.31
2023-03-17T02:30:32.513Z,52.47
2023-03-17T02:32:59.201Z,52.38
2023-03-17T02:35:25.547Z,52.61
2023-03-17T02:37:52.318Z,52.48
2023-03-17T02:40:19.000Z,52.72
2023-03-17T02:42:45.794Z,52.28
2023-03-17T02:45:12.318Z,52.37
2023-03-17T02:47:38.956Z,52.56
2023-03-17T02:50:05.273Z,52.51
2023-03-17T02:52:31.815Z,52.55
2023-03-17T02:54:58.126Z,52.59
2023-03-17T02:57:24.709Z,52.62
2023-03-17T02:59:51.136Z,52.71
2023-03-17T03:02:17.538Z,52.55
2023-03-17T03:04:43.943Z,52.49
2023-03-17T03:07:10.284Z,52.82
2023-03-17T03:09:36.638Z,52.56
2023-03-17T03:12:03.338Z,52.68
2023-03-17T03:14:29.640Z,52.68
2023-03-17T03:16:56.138Z,52.66
2023-03-17T03:19:22.509Z,52.64
2023-03-17T03:21:49.355Z,52.75
2023-03-17T03:24:16.338Z,52.61
2023-03-17T03:26:43.125Z,52.66
2023-03-17T03:29:10.019Z,52.82
2023-03-17T03:31:36.407Z,52.56
2023-03-17T03:34:02.784Z,52.91
2023-03-17T03:36:29.300Z,52.55
2023-03-17T03:38:55.621Z,52.69
2023-03-17T03:41:22.007Z,52.63
2023-03-17T03:43:49.198Z,52.73
2023-03-17T03:46:15.808Z,52.64
2023-03-17T03:48:42.216Z,52.98
2023-03-17T03:51:09.213Z,52.79
2023-03-17T03:53:35.561Z,52.82
2023-03-17T03:56:01.904Z,52.60
2023-03-17T03:58:28.577Z,52.88
2023-03-17T04:00:54.947Z,52.96
2023-03-17T04:03:21.923Z,52.83
2023-03-17T04:05:48.295Z,52.74
2023-03-17T04:08:14.812Z,52.74
2023-03-17T04:10:41.232Z,52.83
2023-03-17T04:13:07.619Z,52.97
2023-03-17T04:15:33.919Z,52.73
2023-03-17T04:18:00.277Z,52.73
2023-03-17T04:20:27.165Z,52.79
2023-03-17T04:22:53.667Z,52.83
2023-03-17T04:25:20.203Z,52.66
2023-03-17T04:27:46.807Z,52.72
2023-03-17T04:30:13.593Z,52.69
2023-03-17T04:32:40.029Z,52.57
2023-03-17T04:35:06.432Z,52.63
2023-03-17T04:37:34.602Z,52.71
2023-03-17T04:40:01.060Z,52.63
2023-03-17T04:42:27.780Z,52.62
2023-03-17T04:44:54.354Z,52.42
2023-03-17T04:47:20.729Z,52.85
2023-03-17T04:49:47.101Z,52.83
2023-03-17T04:52:13.556Z,52.72
2023-03-17T04:54:39.951Z,52.76
2023-03-17T04:57:06.468Z,52.49
2023-03-17T04:59:33.315Z,52.52
2023-03-17T05:01:59.772Z,52.74
2023-03-17T05:04:31.551Z,52.64
2023-03-17T05:06:59.182Z,52.69
2023-03-17T05:09:25.570Z,52.61
2023-03-17T05:11:51.935Z,52.65
2023-03-17T05:14:18.498Z,52.67
2023-03-17T05:16:44.918Z,52.38
2023-03-17T05:19:11.234Z,52.57
2023-03-17T05:21:37.600Z,52.58
2023-03-17T05:24:03.986Z,52.68
2023-03-17T05:26:30.435Z,52.40
2023-03-17T05:28:57.138Z,52.70
2023-03-17T05:31:23.818Z,52.59
2023-03-17T05:33:50.135Z,52.70
2023-03-17T05:36:17.215Z,52.65
2023-03-17T05:38:43.619Z,52.63
2023-03-17T05:41:09.958Z,52.47
2023-03-17T05:43:36.292Z,52.44
2023-03-17T05:46:02.700Z,52.63
2023-03-17T05:48:29.573Z,52.75
2023-03-17T05:50:56.130Z,52.68
2023-03-17T05:53:22.859Z,52.72
2023-03-17T05:55:49.287Z,52.68
2023-03-17T05:58:15.799Z,52.62
2023-03-17T06:00:42.191Z,52.61
2023-03-17T06:03:08.669Z,52.79
2023-03-17T06:05:35.464Z,52.63
2023-03-17T06:08:02.052Z,52.63
2023-03-17T06:10:28.461Z,52.24
2023-03-17T06:12:55.035Z,52.36
2023-03-17T06:15:21.570Z,52.17
2023-03-17T06:17:47.976Z,51.90
2023-03-17T06:20:14.581Z,51.93
2023-03-17T06:22:51.650Z,51.93
2023-03-17T06:25:26.867Z,52.18
2023-03-17T06:27:53.398Z,51.99
2023-03-17T06:30:20.026Z,51.81
2023-03-17T06:32:46.464Z,51.83
2023-03-17T06:35:12.768Z,52.01
2023-03-17T06:37:39.163Z,51.79
2023-03-17T06:40:05.596Z,51.63
2023-03-17T06:42:31.931Z,52.04
2023-03-17T06:44:58.326Z,51.92
2023-03-17T06:47:26.037Z,51.85
2023-03-17T06:49:52.585Z,51.84
2023-03-17T06:52:19.551Z,52.11
2023-03-17T06:54:45.912Z,51.90
2023-03-17T06:57:12.282Z,51.86
2023-03-17T06:59:39.250Z,52.04
2023-03-17T07:02:05.763Z,52.03
2023-03-17T07:04:32.187Z,51.91
2023-03-17T07:06:58.548Z,52.06
2023-03-17T07:09:24.915Z,52.04
2023-03-17T07:11:51.874Z,52.17
2023-03-17T07:14:18.562Z,51.99
2023-03-17T07:16:45.282Z,52.24
2023-03-17T07:19:12.156Z,52.10
2023-03-17T07:21:38.852Z,52.10
2023-03-17T07:24:05.263Z,52.25
2023-03-17T07:26:31.657Z,52.15
2023-03-17T07:28:58.324Z,52.17
2023-03-17T07:31:25.064Z,52.14
2023-03-17T07:33:51.492Z,52.48
2023-03-17T07:36:18.289Z,52.20
2023-03-17T07:38:44.669Z,52.22
2023-03-17T07:41:11.150Z,52.19
2023-03-17T07:43:37.570Z,52.01
2023-03-17T07:46:06.315Z,52.17
2023-03-17T07:48:32.940Z,52.01
2023-03-17T07:50:59.846Z,52.27
2023-03-17T07:53:26.899Z,52.11
2023-03-17T07:55:53.199Z,52.10
2023-03-17T07:58:20.236Z,52.02
2023-03-17T08:00:47.030Z,51.97
2023-03-17T08:03:14.015Z,52.23
2023-03-17T08:05:40.623Z,51.97
2023-03-17T08:08:07.237Z,52.26
2023-03-17T08:10:34.081Z,51.99
2023-03-17T08:13:00.914Z,52.10
2023-03-17T08:15:28.287Z,52.12
2023-03-17T08:17:54.614Z,51.90
2023-03-17T08:20:21.324Z,51.91
2023-03-17T08:22:48.049Z,51.96
2023-03-17T08:25:14.408Z,51.89
2023-03-17T08:27:40.741Z,51.91
2023-03-17T08:30:07.265Z,51.84
2023-03-17T08:32:33.659Z,52.12
2023-03-17T08:35:00.108Z,52.25
2023-03-17T08:37:27.234Z,52.04
2023-03-17T08:39:53.641Z,52.03
2023-03-17T08:42:20.260Z,52.10
2023-03-17T08:44:47.025Z,52.24
2023-03-17T08:47:13.608Z,52.27
2023-03-17T08:49:39.893Z,52.29
2023-03-17T08:52:07.222Z,52.41
2023-03-17T08:54:33.525Z,52.21
2023-03-17T08:56:59.861Z,52.42
2023-03-17T08:59:26.677Z,52.45
2023-03-17T09:01:53.762Z,52.32
2023-03-17T09:04:20.710Z,52.30
2023-03-17T09:07:02.419Z,52.32
2023-03-17T09:09:30.022Z,52.42
2023-03-17T09:11:56.536Z,52.33
2023-03-17T09:14:23.658Z,52.24
2023-03-17T09:16:50.127Z,52.29
2023-03-17T09:19:17.215Z,52.58
2023-03-17T09:21:43.502Z,52.52
2023-03-17T09:24:09.859Z,52.45
2023-03-17T09:26:36.170Z,52.48
2023-03-17T09:29:04.677Z,52.44
2023-03-17T09:31:31.082Z,52.45
2023-03-17T09:33:57.487Z,52.79
2023-03-17T09:36:23.915Z,52.51
2023-03-17T09:38:50.284Z,52.57
2023-03-17T09:41:16.962Z,52.65
2023-03-17T09:43:43.296Z,52.50
2023-03-17T09:46:09.690Z,52.54
2023-03-17T09:48:36.041Z,52.50
2023-03-17T09:51:02.626Z,52.77
2023-03-17T09:53:29.607Z,52.65
2023-03-17T09:55:56.044Z,52.62
2023-03-17T09:58:22.822Z,52.72
2023-03-17T10:00:49.429Z,52.62
2023-03-17T10:03:15.786Z,52.82
2023-03-17T10:05:42.732Z,52.49
2023-03-17T10:08:26.929Z,52.72
2023-03-17T10:10:56.128Z,52.90
2023-03-17T10:13:22.439Z,52.90
2023-03-17T10:15:49.130Z,52.75
2023-03-17T10:18:15.722Z,52.75
2023-03-17T10:20:42.155Z,52.80
2023-03-17T10:23:08.845Z,52.90
2023-03-17T10:25:35.389Z,52.94
2023-03-17T10:28:01.754Z,52.88
2023-03-17T10:30:28.536Z,52.99
2023-03-17T10:32:55.016Z,52.88
2023-03-17T10:35:21.707Z,52.98
2023-03-17T10:37:48.073Z,53.04
2023-03-17T10:40:14.466Z,52.84
2023-03-17T10:42:41.149Z,53.04
2023-03-17T10:45:07.779Z,52.99
2023-03-17T10:47:34.419Z,52.92
2023-03-17T10:50:01.257Z,52.97
2023-03-17T10:52:27.920Z,53.02
2023-03-17T10:54:54.246Z,52.91
2023-03-17T10:57:20.769Z,53.03
2023-03-17T10:59:47.539Z,52.96
2023-03-17T11:02:13.883Z,52.90
2023-03-17T11:04:40.710Z,53.02
2023-03-17T11:07:07.438Z,53.07
2023-03-17T11:09:33.843Z,52.91
2023-03-17T11:12:00.216Z,52.96
2023-03-17T11:14:26.718Z,52.97
2023-03-17T11:16:53.681Z,53.04
2023-03-17T11:19:20.344Z,53.03
2023-03-17T11:21:47.392Z,52.96
2023-03-17T11:24:13.758Z,53.15
2023-03-17T11:26:40.291Z,52.96
2023-03-17T11:29:06.859Z,52.79
2023-03-17T11:31:33.292Z,53.07
2023-03-17T11:33:59.720Z,52.83
2023-03-17T11:36:26.077Z,52.83
2023-03-17T11:38:52.959Z,52.89
2023-03-17T11:41:19.928Z,52.85
2023-03-17T11:43:46.255Z,53.08
2023-03-17T11:46:12.810Z,53.02
2023-03-17T11:48:39.722Z,52.98
2023-03-17T11:51:06.144Z,52.84
2023-03-17T11:53:32.476Z,52.86
2023-03-17T11:55:58.859Z,52.84
2023-03-17T11:58:25.230Z,52.94
2023-03-17T12:00:52.182Z,52.92
2023-03-17T12:03:18.788Z,52.83
2023-03-17T12:05:45.147Z,52.96
2023-03-17T12:08:11.479Z,52.87
2023-03-17T12:10:38.438Z,53.05
2023-03-17T12:13:04.835Z,53.12
2023-03-17T12:15:31.874Z,52.97
2023-03-17T12:17:58.252Z,52.86
2023-03-17T12:20:25.463Z,53.08
2023-03-17T12:22:52.584Z,53.08
2023-03-17T12:25:19.128Z,52.89
2023-03-17T12:27:45.941Z,53.10
2023-03-17T12:30:12.262Z,53.23
2023-03-17T12:32:39.734Z,52.92
2023-03-17T12:35:06.222Z,52.95
2023-03-17T12:37:33.200Z,53.06
2023-03-17T12:39:59.564Z,53.04
2023-03-17T12:42:26.060Z,53.31
2023-03-17T12:44:52.794Z,53.12
2023-03-17T12:47:19.054Z,53.26
2023-03-17T12:49:45.429Z,53.23
2023-03-17T12:52:12.507Z,53.09
2023-03-17T12:54:39.342Z,53.20
2023-03-17T12:57:05.687Z,53.14
2023-03-17T12:59:32.077Z,53.28
2023-03-17T13:01:58.718Z,53.14
2023-03-17T13:04:27.126Z,53.12
2023-03-17T13:06:54.170Z,53.19
2023-03-17T13:09:20.865Z,53.24
2023-03-17T13:11:47.186Z,53.26
2023-03-17T13:14:13.476Z,53.44
2023-03-17T13:16:40.265Z,53.31
2023-03-17T13:19:07.265Z,53.24
2023-03-17T13:21:36.204Z,53.38
2023-03-17T13:24:02.678Z,53.50
2023-03-17T13:26:29.228Z,53.44
2023-03-17T13:28:55.789Z,53.52
2023-03-17T13:31:22.973Z,53.53
2023-03-17T13:33:49.361Z,53.51
2023-03-17T13:36:15.959Z,53.48
2023-03-17T13:38:42.430Z,53.45
2023-03-17T13:41:08.781Z,53.50
2023-03-17T13:43:35.090Z,53.55
2023-03-17T13:46:01.367Z,53.54
2023-03-17T13:48:28.068Z,53.44
2023-03-17T13:50:54.447Z,53.59
2023-03-17T13:53:21.123Z,53.61
2023-03-17T13:55:47.645Z,53.68
2023-03-17T13:58:14.032Z,53.63
2023-03-17T14:00:40.939Z,53.69
2023-03-17T14:03:07.887Z,53.57
2023-03-17T14:05:34.440Z,53.65
2023-03-17T14:08:01.490Z,53.63
2023-03-17T14:10:27.825Z,53.47
2023-03-17T14:12:54.828Z,53.63
2023-03-17T14:15:21.345Z,53.70
2023-03-17T14:17:48.007Z,53.59
2023-03-17T14:20:14.774Z,53.60
2023-03-17T14:22:43.805Z,53.75
2023-03-17T14:25:11.563Z,53.76
2023-03-17T14:27:38.438Z,53.59
2023-03-17T14:30:05.182Z,53.69
2023-03-17T14:32:31.502Z,53.57
2023-03-17T14:34:58.378Z,53.72
2023-03-17T14:37:25.140Z,53.73
2023-03-17T14:39:51.498Z,53.48
2023-03-17T14:42:17.815Z,53.59
2023-03-17T14:44:44.707Z,53.38
2023-03-17T14:47:12.214Z,53.75
2023-03-17T14:49:38.582Z,53.55
2023-03-17T14:52:05.033Z,53.81
2023-03-17T14:54:31.700Z,53.83
2023-03-17T14:56:58.132Z,54.07
2023-03-17T14:59:24.509Z,53.88
2023-03-17T15:01:50.915Z,53.89
2023-03-17T15:04:17.523Z,53.81
2023-03-17T15:06:44.314Z,53.72
2023-03-17T15:09:10.928Z,53.99
2023-03-17T15:11:37.326Z,53.76
2023-03-17T15:14:03.792Z,53.99
2023-03-17T15:16:30.576Z,53.76
2023-03-17T15:18:57.044Z,53.79
2023-03-17T15:21:23.603Z,53.82
2023-03-17T15:23:49.948Z,53.77
2023-03-17T15:26:16.264Z,54.02
2023-03-17T15:28:43.056Z,53.79
2023-03-17T15:31:09.463Z,53.86
2023-03-17T15:33:36.673Z,53.78
2023-03-17T15:36:03.075Z,53.87
2023-03-17T15:38:29.534Z,53.95
2023-03-17T15:40:55.950Z,54.08
2023-03-17T15:43:22.461Z,53.97
2023-03-17T15:45:49.015Z,53.96
2023-03-17T15:48:15.701Z,53.85
2023-03-17T15:50:42.233Z,54.05
2023-03-17T15:53:08.617Z,53.98
2023-03-17T15:55:35.587Z,53.91
2023-03-17T15:58:02.170Z,54.00
2023-03-17T16:00:28.619Z,53.97
2023-03-17T16:02:54.952Z,53.90
2023-03-17T16:05:21.434Z,54.12
2023-03-17T16:07:47.792Z,53.99
2023-03-17T16:10:14.736Z,54.09
2023-03-17T16:12:41.025Z,54.00
2023-03-17T16:15:21.860Z,54.02
2023-03-17T16:17:49.493Z,54.03
2023-03-17T16:20:15.848Z,54.04
2023-03-17T16:22:42.249Z,53.97
2023-03-17T16:25:08.520Z,54.04
2023-03-17T16:27:34.899Z,54.11
2023-03-17T16:30:01.213Z,53.99
2023-03-17T16:32:28.241Z,53.99
2023-03-17T16:34:55.061Z,54.13
2023-03-17T16:37:21.622Z,54.07
2023-03-17T16:39:48.035Z,54.03
2023-03-17T16:42:14.661Z,53.76
2023-03-17T16:44:42.146Z,53.85
2023-03-17T16:47:09.007Z,53.81
2023-03-17T16:49:35.352Z,53.89
2023-03-17T16:52:01.703Z,53.60
2023-03-17T16:54:28.033Z,53.83
2023-03-17T16:56:54.585Z,53.87
2023-03-17T16:59:21.102Z,53.81
2023-03-17T17:01:47.741Z,53.52
2023-03-17T17:04:14.115Z,53.59
2023-03-17T17:06:41.169Z,53.76
2023-03-17T17:09:07.781Z,53.58
2023-03-17T17:11:34.473Z,53.68
2023-03-17T17:14:00.853Z,53.64
2023-03-17T17:16:27.590Z,53.80
2023-03-17T17:18:54.388Z,53.65
2023-03-17T17:21:20.729Z,53.64
2023-03-17T17:23:47.076Z,53.82
2023-03-17T17:26:13.512Z,53.75
2023-03-17T17:28:40.335Z,53.81
2023-03-17T17:31:07.535Z,53.58
2023-03-17T17:33:33.932Z,53.61
2023-03-17T17:36:00.383Z,53.88
2023-03-17T17:38:26.788Z,53.90
2023-03-17T17:40:53.127Z,53.68
2023-03-17T17:43:19.641Z,53.82
2023-03-17T17:45:46.011Z,53.66
2023-03-17T17:48:12.275Z,53.84
2023-03-17T17:50:38.628Z,53.82
2023-03-17T17:53:05.678Z,53.78
2023-03-17T17:55:32.075Z,53.74
2023-03-17T17:57:58.848Z,53.68
2023-03-17T18:00:25.152Z,53.89
2023-03-17T18:02:51.654Z,53.91
2023-03-17T18:05:18.016Z,53.65
2023-03-17T18:07:44.444Z,53.59
2023-03-17T18:10:11.344Z,53.58
2023-03-17T18:12:38.048Z,53.81
2023-03-17T18:15:04.568Z,53.85
2023-03-17T18:17:32.583Z,53.84
2023-03-17T18:19:59.337Z,53.79
2023-03-17T18:22:26.177Z,53.70
2023-03-17T18:24:52.551Z,53.69
2023-03-17T18:27:19.124Z,53.70
2023-03-17T18:29:45.672Z,53.92
2023-03-17T18:32:12.879Z,53.69
2023-03-17T18:34:40.024Z,53.70
2023-03-17T18:37:07.144Z,53.89
2023-03-17T18:39:33.439Z,53.87
2023-03-17T18:41:59.823Z,53.67
2023-03-17T18:44:26.171Z,53.79
2023-03-17T18:46:52.657Z,53.83
2023-03-17T18:49:18.971Z,53.67
2023-03-17T18:51:45.581Z,53.79
2023-03-17T18:54:12.100Z,53.66
2023-03-17T18:56:38.693Z,53.77
2023-03-17T18:59:05.159Z,53.54
2023-03-17T19:01:31.630Z,53.60
2023-03-17T19:03:57.981Z,53.85
2023-03-17T19:06:24.804Z,53.95
2023-03-17T19:08:51.316Z,53.60
2023-03-17T19:11:17.937Z,54.10
2023-03-17T19:13:44.375Z,53.65
2023-03-17T19:16:10.939Z,53.91
2023-03-17T19:18:37.500Z,53.62
2023-03-17T19:21:04.120Z,53.70
2023-03-17T19:23:30.566Z,53.75
2023-03-17T19:25:57.491Z,53.85
2023-03-17T19:28:23.848Z,53.90
2023-03-17T19:30:50.574Z,53.90
2023-03-17T19:33:17.163Z,53.85
2023-03-17T19:35:43.954Z,53.91
2023-03-17T19:38:10.371Z,53.70
2023-03-17T19:40:36.965Z,53.58
2023-03-17T19:43:04.298Z,53.62
2023-03-17T19:45:30.755Z,53.65
2023-03-17T19:47:57.163Z,53.60
2023-03-17T19:50:23.562Z,53.60
2023-03-17T19:52:50.121Z,53.77
2023-03-17T19:55:16.534Z,53.62
2023-03-17T19:57:42.965Z,53.73
2023-03-17T20:00:09.263Z,53.80
2023-03-17T20:02:35.754Z,53.71
2023-03-17T20:05:02.440Z,53.61
2023-03-17T20:07:28.993Z,53.75
2023-03-17T20:09:55.391Z,53.62
2023-03-17T20:12:21.746Z,53.73
2023-03-17T20:14:49.135Z,53.69
2023-03-17T20:17:15.529Z,53.61
2023-03-17T20:19:42.166Z,53.50
2023-03-17T20:22:08.947Z,53.56
2023-03-17T20:24:35.295Z,53.81
2023-03-17T20:27:01.678Z,53.75
2023-03-17T20:29:28.108Z,53.56
2023-03-17T20:31:54.684Z,53.71
2023-03-17T20:34:20.986Z,53.65
2023-03-17T20:36:47.819Z,53.65
2023-03-17T20:39:14.149Z,53.41
2023-03-17T20:41:40.601Z,53.75
2023-03-17T20:44:07.536Z,53.77
2023-03-17T20:46:34.358Z,53.62
2023-03-17T20:49:00.788Z,53.87
2023-03-17T20:51:27.091Z,53.73
2023-03-17T20:53:53.504Z,53.65
2023-03-17T20:56:19.939Z,53.87
2023-03-17T20:58:46.323Z,53.62
2023-03-17T21:01:13.125Z,53.74
2023-03-17T21:03:39.528Z,53.74
2023-03-17T21:06:05.934Z,53.68
2023-03-17T21:08:32.290Z,53.58
2023-03-17T21:10:59.305Z,53.81
2023-03-17T21:13:26.080Z,53.66
2023-03-17T21:15:53.199Z,53.69
2023-03-17T21:18:20.247Z,53.70
2023-03-17T21:20:46.648Z,53.74
2023-03-17T21:23:13.373Z,53.59
2023-03-17T21:25:39.910Z,53.85
2023-03-17T21:28:06.951Z,53.71
2023-03-17T21:30:33.500Z,53.64
2023-03-17T21:33:00.103Z,53.74
2023-03-17T21:35:27.045Z,53.79
2023-03-17T21:37:53.576Z,53.73
2023-03-17T21:40:19.937Z,53.63
2023-03-17T21:42:46.289Z,53.89
2023-03-17T21:45:13.183Z,53.62
2023-03-17T21:47:39.927Z,53.74
2023-03-17T21:50:06.498Z,53.69
2023-03-17T21:52:33.098Z,53.80
2023-03-17T21:54:59.889Z,53.54
2023-03-17T21:57:26.829Z,53.83
2023-03-17T21:59:53.764Z,53.81
2023-03-17T22:02:20.105Z,53.70
2023-03-17T22:04:46.478Z,53.85
2023-03-17T22:07:12.870Z,53.60
2023-03-17T22:09:39.551Z,53.67
2023-03-17T22:12:06.439Z,53.84
2023-03-17T22:14:32.761Z,53.79
2023-03-17T22:16:59.567Z,53.77
2023-03-17T22:19:26.000Z,53.71
2023-03-17T22:21:52.350Z,53.82
2023-03-17T22:24:18.648Z,53.72
2023-03-17T22:26:45.478Z,53.89
2023-03-17T22:29:11.935Z,53.74
2023-03-17T22:31:38.775Z,53.91
2023-03-17T22:34:05.575Z,53.75
2023-03-17T22:36:32.044Z,53.72
2023-03-17T22:38:58.520Z,53.84
2023-03-17T22:41:24.961Z,53.75
2023-03-17T22:43:51.382Z,53.82
2023-03-17T22:46:17.886Z,53.58
2023-03-17T22:48:44.822Z,53.86
2023-03-17T22:51:11.614Z,53.76
2023-03-17T22:53:38.255Z,53.86
2023-03-17T22:56:04.537Z,53.99
2023-03-17T22:58:31.363Z,53.71
2023-03-17T23:00:57.786Z,53.68
2023-03-17T23:03:24.994Z,53.75
2023-03-17T23:05:51.737Z,53.90
2023-03-17T23:08:18.158Z,53.76
2023-03-17T23:10:44.964Z,53.70
2023-03-17T23:13:11.573Z,53.76
2023-03-17T23:15:37.919Z,53.87
2023-03-17T23:18:04.547Z,53.88
2023-03-17T23:20:31.863Z,53.74
2023-03-17T23:22:58.740Z,53.64
2023-03-17T23:25:25.122Z,53.68
2023-03-17T23:27:51.502Z,53.91
2023-03-17T23:30:18.190Z,53.79
2023-03-17T23:32:44.796Z,53.83
2023-03-17T23:35:11.356Z,53.92
2023-03-17T23:37:37.808Z,53.87
2023-03-17T23:40:04.317Z,53.73
2023-03-17T23:42:31.423Z,53.83
2023-03-17T23:44:57.806Z,53.74
2023-03-17T23:47:24.184Z,53.79
2023-03-17T23:49:50.549Z,53.78
2023-03-17T23:52:16.894Z,53.70
2023-03-17T23:54:43.202Z,53.63
2023-03-17T23:57:09.578Z,53.63
2023-03-17T23:59:35.956Z,53.83
